Terminal Aerodrome Forecast
Issued by NWS Omaha/Valley, NE

Home | Current Version | Previous Version | Text Only | Print | Product List | Glossary On
Versions: 1 2 3 4 5 6 7 8 9 10 11 12 13 14 15 16 17 18 19 20 21 22 23 24 25 26 27 28 29 30 31 32 33 34 35 36 37 38 39 40 41 42 43 44 45
000
FTUS43 KOAX 020520
TAFLNK
TAF
KLNK 020520Z 0206/0306 08008KT P6SM OVC015
     FM020900 08008KT 4SM BR OVC015
      TEMPO 0211/0214 3SM BR OVC008
     FM021800 05008KT 5SM -SHRA BR OVC025
     FM022300 11008KT P6SM BKN040=

USA.gov is the U.S. government's official web portal to all federal, state and local government web resources and services.